Time;durP1;ratioP1;P1;durP2;ratioP2;P2;SDS_P1;SDS_P2;PMS_P1;PMS_P2;Temp;Humidity;BMP_temperature;BMP_pressure;BME280_temperature;BME280_humidity;BME280_pressure;Samples;Min_cycle;Max_cycle;Signal;HPM_P1;HPM_P2
2021/12/26 00:09:51;;;;;;;7.53;4.57;;;-7.20;97.30;;;;;;5091171;28;20457;-79
2021/12/26 00:12:16;;;;;;;5.10;3.37;;;-7.20;97.30;;;;;;5074069;28;20458;-79
2021/12/26 00:14:42;;;;;;;13.13;4.33;;;-7.20;97.30;;;;;;5074436;28;20730;-81
2021/12/26 00:17:08;;;;;;;8.97;3.90;;;-7.20;97.30;;;;;;5074669;28;20172;-83
2021/12/26 00:19:34;;;;;;;4.77;3.70;;;-7.20;97.30;;;;;;5074732;28;20426;-80
2021/12/26 00:21:59;;;;;;;4.63;3.23;;;-7.20;97.30;;;;;;5073429;28;20661;-77
2021/12/26 00:24:25;;;;;;;7.73;4.70;;;-7.20;97.30;;;;;;5073744;28;20179;-76
2021/12/26 00:26:50;;;;;;;6.00;3.80;;;-7.20;97.30;;;;;;5074078;28;20175;-76
2021/12/26 00:29:16;;;;;;;12.37;4.63;;;-7.20;97.30;;;;;;5074236;28;20718;-78
2021/12/26 00:32:20;;;;;;;7.50;3.60;;;-7.20;97.30;;;;;;5077118;28;20298;-80
2021/12/26 00:35:01;;;;;;;5.83;4.10;;;-7.20;97.30;;;;;;4978934;28;20183;-77
2021/12/26 00:37:31;;;;;;;7.50;4.03;;;-7.30;97.30;;;;;;4978793;28;20933;-80
2021/12/26 00:39:57;;;;;;;7.13;4.20;;;-7.30;97.30;;;;;;4978819;28;20949;-79
2021/12/26 00:42:22;;;;;;;9.30;3.70;;;-7.40;97.30;;;;;;5060482;28;20415;-78
2021/12/26 00:44:48;;;;;;;10.40;3.93;;;-7.40;97.30;;;;;;5078487;28;20187;-78
2021/12/26 00:47:14;;;;;;;10.13;3.87;;;-7.50;97.30;;;;;;5078239;28;20195;-78
2021/12/26 00:49:39;;;;;;;11.80;4.30;;;-7.50;97.30;;;;;;5077556;28;20194;-80
2021/12/26 00:52:06;;;;;;;11.33;4.27;;;-7.60;97.30;;;;;;5075593;28;20190;-78
2021/12/26 00:54:32;;;;;;;10.47;4.20;;;-7.70;97.30;;;;;;5076949;28;20179;-79
2021/12/26 00:56:57;;;;;;;10.23;4.70;;;-7.70;97.30;;;;;;5075963;28;20962;-79
2021/12/26 00:59:25;;;;;;;9.00;4.20;;;-7.70;97.30;;;;;;5093997;28;20180;-79
2021/12/26 01:01:52;;;;;;;7.50;4.93;;;-7.70;97.30;;;;;;5080850;28;20197;-79
2021/12/26 01:04:18;;;;;;;9.60;5.40;;;-7.80;97.30;;;;;;5071847;28;20990;-78
2021/12/26 01:06:44;;;;;;;10.37;5.57;;;-7.80;97.30;;;;;;5074814;28;20418;-78
2021/12/26 01:09:12;;;;;;;6.87;4.67;;;-7.80;97.30;;;;;;5075023;28;20199;-78
2021/12/26 01:11:42;;;;;;;9.33;4.00;;;-7.80;97.30;;;;;;5074051;28;20473;-77
2021/12/26 01:14:12;;;;;;;8.50;4.30;;;-7.80;97.30;;;;;;5072909;28;20529;-78
2021/12/26 01:16:39;;;;;;;10.17;4.73;;;-7.80;97.30;;;;;;5074398;28;20441;-78
2021/12/26 01:19:11;;;;;;;5.20;3.90;;;-7.80;97.30;;;;;;5074573;28;20417;-78
2021/12/26 01:21:38;;;;;;;9.60;5.07;;;-7.80;97.30;;;;;;5074028;28;20492;-78
2021/12/26 01:24:14;;;;;;;10.87;4.27;;;-7.80;97.30;;;;;;5073363;28;20950;-77
2021/12/26 01:26:40;;;;;;;10.70;5.67;;;-7.80;97.30;;;;;;5072510;28;20425;-77
2021/12/26 01:29:07;;;;;;;7.30;4.30;;;-7.80;97.30;;;;;;5059129;28;20468;-77
2021/12/26 01:31:33;;;;;;;9.70;4.33;;;-7.80;97.30;;;;;;5072632;28;20429;-76
2021/12/26 01:34:03;;;;;;;8.97;4.63;;;-7.80;97.30;;;;;;5072998;28;20597;-77
2021/12/26 01:36:30;;;;;;;8.80;3.97;;;-7.80;97.30;;;;;;5090748;28;20409;-77
2021/12/26 01:38:58;;;;;;;8.50;4.30;;;-7.80;97.30;;;;;;5072275;28;20473;-77
2021/12/26 01:41:26;;;;;;;15.37;4.60;;;-8.00;97.30;;;;;;5065600;28;20446;-77
2021/12/26 01:43:56;;;;;;;5.67;3.60;;;-8.00;97.30;;;;;;5051937;28;20425;-77
2021/12/26 01:46:24;;;;;;;8.10;4.60;;;-8.00;97.30;;;;;;5063460;28;20823;-77
2021/12/26 01:49:20;;;;;;;14.10;4.63;;;-7.90;97.30;;;;;;5072440;28;20448;-77
2021/12/26 01:51:48;;;;;;;9.60;4.20;;;-7.90;97.30;;;;;;5075438;28;20431;-77
2021/12/26 01:54:17;;;;;;;10.40;4.63;;;-7.90;97.30;;;;;;5076288;28;20475;-77
2021/12/26 01:56:43;;;;;;;8.73;5.80;;;-7.90;97.30;;;;;;5094678;28;20435;-77
2021/12/26 01:59:12;;;;;;;14.27;5.40;;;-7.90;97.30;;;;;;5076135;28;20506;-77
2021/12/26 02:02:00;;;;;;;12.67;4.10;;;-7.90;97.30;;;;;;5076443;28;20437;-77
2021/12/26 02:04:30;;;;;;;6.70;3.80;;;-7.90;97.30;;;;;;5076544;28;20410;-78
2021/12/26 02:07:02;;;;;;;8.30;4.70;;;-8.00;97.30;;;;;;5076666;28;20400;-77
2021/12/26 02:09:29;;;;;;;13.30;4.43;;;-8.00;97.30;;;;;;5076386;28;20471;-80
2021/12/26 02:22:56;;;;;;;6.77;3.57;;;-8.20;97.30;;;;;;5088780;28;21031;-77
2021/12/26 02:27:56;;;;;;;12.90;4.10;;;-8.20;97.30;;;;;;5078504;28;20417;-78
2021/12/26 02:30:23;;;;;;;8.70;5.33;;;-8.20;97.30;;;;;;5056654;28;20465;-76
2021/12/26 02:32:50;;;;;;;9.03;5.27;;;-8.30;97.30;;;;;;5071683;28;20189;-75
2021/12/26 02:35:19;;;;;;;11.03;5.00;;;-8.40;97.30;;;;;;5071433;28;20496;-74
2021/12/26 02:37:44;;;;;;;6.47;3.77;;;-8.40;97.30;;;;;;5053507;28;20458;-74
2021/12/26 02:40:11;;;;;;;8.03;4.53;;;-8.50;97.30;;;;;;5054341;28;20500;-75
2021/12/26 02:42:36;;;;;;;9.20;3.60;;;-8.50;97.30;;;;;;5052854;28;20211;-75
2021/12/26 02:45:03;;;;;;;11.97;4.23;;;-8.60;97.30;;;;;;5035248;28;20446;-77
2021/12/26 02:47:38;;;;;;;4.70;3.77;;;-8.60;97.30;;;;;;5036602;28;20179;-77
2021/12/26 02:50:25;;;;;;;7.57;3.90;;;-8.70;97.30;;;;;;5055744;28;20461;-78
2021/12/26 03:10:34;;;;;;;5.63;3.63;;;-9.00;97.30;;;;;;5072511;28;20540;-78
2021/12/26 03:13:03;;;;;;;4.97;3.87;;;-9.00;97.30;;;;;;5055524;28;20452;-78
2021/12/26 03:15:32;;;;;;;6.40;3.93;;;-9.00;97.30;;;;;;5055694;28;20926;-78
2021/12/26 03:18:00;;;;;;;18.10;5.17;;;-9.10;97.30;;;;;;5055316;28;20827;-77
2021/12/26 03:20:32;;;;;;;9.80;5.23;;;-9.10;97.30;;;;;;5054547;28;20433;-78
2021/12/26 03:23:02;;;;;;;8.07;4.10;;;-9.10;97.30;;;;;;5063827;28;20503;-78
2021/12/26 03:25:29;;;;;;;6.63;4.43;;;-9.10;97.30;;;;;;5091877;28;20534;-78
2021/12/26 03:27:55;;;;;;;13.43;5.90;;;-9.20;97.30;;;;;;5091606;28;20417;-78
2021/12/26 03:30:24;;;;;;;7.07;3.47;;;-9.20;97.30;;;;;;5091603;28;20465;-78
2021/12/26 03:32:51;;;;;;;8.63;4.60;;;-9.20;97.30;;;;;;5093351;28;20415;-78
2021/12/26 03:35:19;;;;;;;7.00;4.50;;;-9.20;97.30;;;;;;5090692;28;20488;-78
2021/12/26 03:37:45;;;;;;;15.07;4.97;;;-9.20;97.30;;;;;;5092287;28;20441;-78
2021/12/26 03:40:11;;;;;;;8.70;4.83;;;-9.10;97.30;;;;;;5080688;28;20464;-75
2021/12/26 03:42:37;;;;;;;8.37;4.20;;;-9.10;97.30;;;;;;5070318;28;20446;-75
2021/12/26 03:45:05;;;;;;;11.23;4.23;;;-9.10;97.30;;;;;;5070271;28;20413;-74
2021/12/26 03:47:32;;;;;;;8.00;4.50;;;-9.20;97.30;;;;;;5070211;28;20418;-75
2021/12/26 03:49:58;;;;;;;7.00;4.00;;;-9.20;97.30;;;;;;5069939;28;20840;-75
2021/12/26 03:52:25;;;;;;;4.80;4.30;;;-9.30;97.30;;;;;;5071516;28;21059;-75
2021/12/26 03:54:51;;;;;;;5.13;3.43;;;-9.30;97.30;;;;;;5077149;28;20508;-75
2021/12/26 03:57:17;;;;;;;9.13;4.30;;;-9.40;97.30;;;;;;5090336;28;20535;-74
2021/12/26 03:59:42;;;;;;;6.63;4.00;;;-9.40;97.30;;;;;;5090941;28;20639;-75
2021/12/26 04:02:08;;;;;;;6.57;3.63;;;-9.40;97.30;;;;;;5091569;28;20194;-77
2021/12/26 04:04:34;;;;;;;7.50;3.80;;;-9.40;97.30;;;;;;5092034;28;20551;-79
2021/12/26 04:23:49;;;;;;;11.73;4.63;;;-9.50;97.30;;;;;;5077508;28;20444;-75
2021/12/26 04:26:15;;;;;;;8.53;4.27;;;-9.60;97.30;;;;;;5051318;28;20426;-76
2021/12/26 04:28:41;;;;;;;8.40;3.33;;;-9.60;97.30;;;;;;5069842;28;20185;-75
2021/12/26 04:31:06;;;;;;;11.93;3.93;;;-9.50;97.30;;;;;;5052012;28;20195;-77
2021/12/26 04:33:32;;;;;;;6.77;4.20;;;-9.50;97.30;;;;;;5052761;28;20221;-77
2021/12/26 04:35:58;;;;;;;8.83;4.10;;;-9.60;97.30;;;;;;5053638;28;20170;-76
2021/12/26 04:38:23;;;;;;;14.40;4.70;;;-9.50;97.30;;;;;;5053572;28;20171;-76
2021/12/26 04:40:51;;;;;;;16.73;6.90;;;-9.50;97.30;;;;;;5053244;28;20199;-77
2021/12/26 04:43:19;;;;;;;15.77;6.27;;;-9.50;97.30;;;;;;5049909;28;20267;-77
2021/12/26 04:45:46;;;;;;;6.90;5.20;;;-9.50;97.30;;;;;;5072545;28;20413;-77
2021/12/26 04:48:12;;;;;;;9.40;4.27;;;-9.60;97.30;;;;;;5054592;28;20424;-78
2021/12/26 04:50:37;;;;;;;8.70;4.10;;;-9.60;97.30;;;;;;5071871;28;20977;-78
2021/12/26 04:53:03;;;;;;;8.50;4.17;;;-9.60;97.30;;;;;;5055038;28;20670;-75
2021/12/26 04:55:29;;;;;;;10.73;5.00;;;-9.60;97.30;;;;;;5052592;28;20182;-76
2021/12/26 04:57:56;;;;;;;14.90;5.80;;;-9.60;97.30;;;;;;5070827;28;20397;-76
2021/12/26 05:00:31;;;;;;;18.50;5.20;;;-9.60;97.30;;;;;;5060382;28;20579;-76
2021/12/26 05:02:58;;;;;;;9.20;4.50;;;-9.60;97.30;;;;;;5052363;28;20548;-76
2021/12/26 05:05:26;;;;;;;8.47;5.70;;;-9.60;97.30;;;;;;5053545;28;20417;-75
2021/12/26 05:07:54;;;;;;;10.80;5.00;;;-9.60;97.30;;;;;;5053235;28;20421;-78
2021/12/26 05:10:20;;;;;;;11.30;4.90;;;-9.60;97.30;;;;;;5052955;28;20471;-77
2021/12/26 05:12:46;;;;;;;7.40;4.73;;;-9.70;97.30;;;;;;5038447;28;20568;-76
2021/12/26 05:15:16;;;;;;;8.73;4.97;;;-9.70;97.30;;;;;;5036090;28;20423;-78
2021/12/26 05:17:42;;;;;;;12.40;5.77;;;-9.70;97.30;;;;;;5047011;28;20521;-78
2021/12/26 05:20:10;;;;;;;8.30;4.10;;;-9.70;97.30;;;;;;5053392;28;20440;-76
2021/12/26 05:22:36;;;;;;;6.00;4.07;;;-9.70;97.30;;;;;;5054404;28;21047;-77
2021/12/26 05:25:03;;;;;;;12.60;5.77;;;-9.70;97.30;;;;;;5093060;28;20396;-76
2021/12/26 05:27:29;;;;;;;7.87;4.20;;;-9.70;97.30;;;;;;5078396;28;20412;-76
2021/12/26 05:29:55;;;;;;;7.07;4.30;;;-9.80;97.30;;;;;;5078072;28;20456;-76
2021/12/26 05:32:21;;;;;;;5.80;4.53;;;-9.80;97.30;;;;;;5095306;28;20455;-74
2021/12/26 05:34:47;;;;;;;10.50;5.60;;;-9.80;97.30;;;;;;5079558;28;20175;-76
2021/12/26 05:37:12;;;;;;;11.50;4.40;;;-9.80;97.30;;;;;;5075871;28;20289;-76
2021/12/26 05:39:38;;;;;;;10.13;4.40;;;-9.80;97.30;;;;;;5077940;28;20961;-75
2021/12/26 05:42:04;;;;;;;4.90;3.87;;;-9.80;97.30;;;;;;5077700;28;20201;-76
2021/12/26 05:44:29;;;;;;;7.17;4.57;;;-9.80;97.30;;;;;;5096121;28;20171;-76
2021/12/26 05:46:55;;;;;;;7.47;4.57;;;-9.80;97.30;;;;;;5096002;28;20416;-75
2021/12/26 05:49:21;;;;;;;13.43;5.00;;;-9.80;97.30;;;;;;5077981;28;20206;-75
2021/12/26 05:51:46;;;;;;;9.10;4.30;;;-9.80;97.30;;;;;;5095218;28;20195;-75
2021/12/26 05:54:12;;;;;;;10.57;4.40;;;-9.80;97.30;;;;;;5095711;28;20178;-75
2021/12/26 05:56:38;;;;;;;9.30;4.60;;;-9.80;97.30;;;;;;5076829;28;20188;-78
2021/12/26 05:59:04;;;;;;;7.43;4.57;;;-9.90;97.30;;;;;;5060985;28;20190;-76
2021/12/26 06:01:32;;;;;;;6.67;4.03;;;-9.90;97.30;;;;;;5076611;28;20943;-75
2021/12/26 06:03:58;;;;;;;5.67;4.20;;;-9.90;97.30;;;;;;5056332;28;20175;-79
2021/12/26 06:06:24;;;;;;;7.90;4.00;;;-9.90;97.30;;;;;;5057355;28;20910;-76
2021/12/26 06:08:50;;;;;;;6.13;3.90;;;-10.00;97.30;;;;;;5081061;28;20432;-76
2021/12/26 06:11:15;;;;;;;9.87;4.47;;;-10.00;97.30;;;;;;5095688;28;20194;-79
2021/12/26 06:13:41;;;;;;;17.20;5.43;;;-10.00;97.30;;;;;;5093177;28;20183;-79
2021/12/26 06:16:07;;;;;;;13.17;5.40;;;-10.00;97.30;;;;;;5069554;28;20221;-78
2021/12/26 06:18:32;;;;;;;10.70;6.03;;;-10.00;97.30;;;;;;5087588;28;20591;-79
2021/12/26 06:20:58;;;;;;;7.43;4.10;;;-10.00;97.30;;;;;;5078915;28;20521;-76
2021/12/26 06:23:24;;;;;;;12.13;4.87;;;-10.00;97.30;;;;;;5068475;28;20559;-79
2021/12/26 06:25:50;;;;;;;9.63;3.80;;;-10.10;97.30;;;;;;5073805;28;20183;-77
2021/12/26 06:28:15;;;;;;;11.47;4.87;;;-10.10;97.30;;;;;;5081815;28;20167;-77
2021/12/26 06:30:41;;;;;;;14.00;5.93;;;-10.10;97.30;;;;;;5073456;28;20563;-77
2021/12/26 06:33:07;;;;;;;11.97;5.37;;;-10.10;97.30;;;;;;5078073;28;20178;-77
2021/12/26 06:35:32;;;;;;;14.70;5.03;;;-10.10;97.30;;;;;;5077982;28;20175;-78
2021/12/26 06:37:58;;;;;;;8.93;4.73;;;-10.10;97.30;;;;;;5076240;28;20167;-78
2021/12/26 06:40:42;;;;;;;21.67;4.23;;;-10.10;97.30;;;;;;5082401;28;20663;-77
2021/12/26 06:43:08;;;;;;;8.97;4.33;;;-10.20;97.30;;;;;;5083053;28;20531;-76
2021/12/26 06:45:34;;;;;;;8.77;4.57;;;-10.10;97.30;;;;;;5068340;28;20420;-76
2021/12/26 06:48:02;;;;;;;8.40;4.43;;;-10.10;97.30;;;;;;5073443;28;20421;-76
2021/12/26 06:50:28;;;;;;;7.57;4.00;;;-10.10;97.30;;;;;;5068811;28;20464;-78
2021/12/26 06:52:54;;;;;;;12.53;5.40;;;-10.10;97.30;;;;;;5059946;28;20409;-76
2021/12/26 06:55:20;;;;;;;10.07;4.10;;;-10.10;97.30;;;;;;5071297;28;20485;-77
2021/12/26 06:57:46;;;;;;;7.20;4.33;;;-10.10;97.30;;;;;;5082668;28;20177;-76
2021/12/26 07:00:15;;;;;;;14.23;5.47;;;-10.10;97.30;;;;;;5075903;28;20806;-75
2021/12/26 07:02:42;;;;;;;6.20;4.00;;;-10.20;97.30;;;;;;5067349;28;20418;-76
2021/12/26 07:05:22;;;;;;;12.23;5.23;;;-10.20;97.30;;;;;;5063603;28;20428;-77
2021/12/26 07:07:50;;;;;;;9.50;5.57;;;-10.10;97.30;;;;;;5077461;28;20790;-76
2021/12/26 07:10:17;;;;;;;8.73;4.90;;;-10.10;97.30;;;;;;5076017;28;20539;-78
2021/12/26 07:12:44;;;;;;;10.40;5.30;;;-10.20;97.30;;;;;;5064875;28;20410;-75
2021/12/26 07:15:10;;;;;;;8.97;5.20;;;-10.20;97.30;;;;;;5059638;28;20482;-75
2021/12/26 07:17:36;;;;;;;8.47;4.90;;;-10.20;97.30;;;;;;5071837;28;20408;-80
2021/12/26 07:20:04;;;;;;;9.43;4.50;;;-9.80;97.30;;;;;;5070495;28;20418;-76
2021/12/26 07:22:35;;;;;;;8.00;4.70;;;-8.90;97.30;;;;;;5069138;28;20980;-78
2021/12/26 07:25:02;;;;;;;10.03;5.30;;;-8.30;97.30;;;;;;5071419;28;20413;-75
2021/12/26 07:27:43;;;;;;;8.37;5.27;;;-8.30;97.30;;;;;;5070512;28;20860;-78
2021/12/26 07:30:18;;;;;;;7.70;5.00;;;-8.70;97.30;;;;;;5077402;28;20458;-77
2021/12/26 07:53:03;;;;;;;15.63;6.13;;;-9.80;97.30;;;;;;5087789;28;20488;-77
2021/12/26 07:55:32;;;;;;;8.70;4.70;;;-9.80;97.30;;;;;;5089417;28;20468;-78
2021/12/26 07:57:58;;;;;;;9.33;4.77;;;-9.80;97.30;;;;;;5084971;28;20541;-77
2021/12/26 08:00:24;;;;;;;16.93;6.00;;;-9.80;97.30;;;;;;5072055;28;20605;-78
2021/12/26 08:02:49;;;;;;;13.30;5.50;;;-9.80;97.30;;;;;;5075333;28;20183;-77
2021/12/26 08:05:16;;;;;;;11.27;5.67;;;-9.70;97.30;;;;;;5061797;28;20182;-77
2021/12/26 08:07:43;;;;;;;11.50;6.40;;;-9.70;97.30;;;;;;5068601;28;21156;-77
2021/12/26 08:10:10;;;;;;;12.20;6.00;;;-9.70;97.30;;;;;;5059075;28;21169;-77
2021/12/26 08:12:36;;;;;;;10.77;6.07;;;-9.60;97.30;;;;;;5091237;28;20478;-77
2021/12/26 08:15:03;;;;;;;7.80;5.00;;;-9.50;97.30;;;;;;5070555;28;20794;-77
2021/12/26 08:17:30;;;;;;;10.30;5.97;;;-9.40;97.30;;;;;;5062273;28;20417;-78
2021/12/26 08:19:58;;;;;;;12.00;5.83;;;-9.40;97.30;;;;;;5065179;28;20416;-78
2021/12/26 08:22:25;;;;;;;11.47;6.03;;;-9.30;97.30;;;;;;5087265;28;20420;-77
2021/12/26 08:24:51;;;;;;;12.70;7.83;;;-9.20;97.30;;;;;;5064114;28;20457;-78
2021/12/26 08:27:17;;;;;;;14.63;6.63;;;-9.00;97.30;;;;;;5042390;28;20439;-77
2021/12/26 08:29:43;;;;;;;16.07;8.60;;;-8.90;97.30;;;;;;5063407;28;20792;-77
2021/12/26 08:32:13;;;;;;;21.13;5.80;;;-8.80;97.30;;;;;;5078026;28;20283;-77
2021/12/26 08:34:39;;;;;;;13.67;6.73;;;-8.70;97.30;;;;;;5041765;28;20763;-77
2021/12/26 08:37:05;;;;;;;13.00;7.10;;;-8.50;97.30;;;;;;5053376;28;20493;-78
2021/12/26 08:39:35;;;;;;;16.50;8.00;;;-8.40;97.30;;;;;;5064065;28;20451;-78
2021/12/26 08:42:01;;;;;;;22.40;7.03;;;-8.30;97.30;;;;;;5048631;28;20886;-78
2021/12/26 08:44:27;;;;;;;16.80;7.27;;;-8.10;97.30;;;;;;5074388;28;20481;-77
2021/12/26 08:46:53;;;;;;;19.20;9.37;;;-8.00;97.30;;;;;;5078705;28;20445;-78
2021/12/26 08:49:20;;;;;;;13.10;7.67;;;-7.80;97.30;;;;;;5051474;28;20227;-78
2021/12/26 08:51:47;;;;;;;18.20;7.97;;;-7.70;97.30;;;;;;5063647;28;20455;-78
2021/12/26 08:54:13;;;;;;;15.10;8.53;;;-7.60;97.30;;;;;;5049362;28;20433;-79
2021/12/26 08:56:39;;;;;;;26.70;10.07;;;-7.60;97.30;;;;;;5041911;28;20410;-79
2021/12/26 08:59:05;;;;;;;20.77;10.53;;;-7.50;97.30;;;;;;5063418;28;20525;-79
2021/12/26 09:01:31;;;;;;;14.70;8.00;;;-7.40;97.30;;;;;;5041988;28;20467;-79
2021/12/26 09:03:57;;;;;;;30.83;9.60;;;-7.40;97.30;;;;;;5046901;28;20917;-79
2021/12/26 09:06:23;;;;;;;15.80;7.13;;;-7.30;97.30;;;;;;5049988;28;20424;-79
2021/12/26 09:08:49;;;;;;;14.40;7.73;;;-7.30;97.30;;;;;;5066010;28;20421;-79
2021/12/26 09:11:16;;;;;;;15.00;7.77;;;-7.20;97.30;;;;;;5047606;28;20203;-79
2021/12/26 09:13:42;;;;;;;20.03;8.13;;;-7.10;97.30;;;;;;5079789;28;20454;-79
2021/12/26 09:16:08;;;;;;;12.90;7.40;;;-7.00;97.30;;;;;;5060835;28;20931;-79
2021/12/26 09:18:34;;;;;;;12.97;7.00;;;-7.00;97.30;;;;;;5059475;28;20426;-79
2021/12/26 09:20:59;;;;;;;17.77;8.73;;;-6.90;97.30;;;;;;5062880;28;20199;-79
2021/12/26 09:23:25;;;;;;;22.97;9.43;;;-6.80;97.30;;;;;;5073013;28;20315;-80
2021/12/26 09:25:50;;;;;;;19.00;10.00;;;-6.80;97.30;;;;;;5077913;28;20686;-79
2021/12/26 09:28:16;;;;;;;17.03;7.40;;;-6.80;97.30;;;;;;5075501;28;20904;-79
2021/12/26 09:30:42;;;;;;;17.83;8.30;;;-6.70;97.30;;;;;;5068624;28;20280;-80
2021/12/26 09:33:07;;;;;;;15.80;8.20;;;-6.70;97.30;;;;;;5090603;28;20177;-80
2021/12/26 09:35:33;;;;;;;18.07;7.77;;;-6.60;97.30;;;;;;5072491;28;20519;-80
2021/12/26 09:37:59;;;;;;;22.87;8.97;;;-6.50;97.30;;;;;;5070938;28;20466;-80
2021/12/26 09:40:25;;;;;;;22.70;8.33;;;-6.40;97.30;;;;;;5071538;28;20357;-79
2021/12/26 09:42:51;;;;;;;17.10;9.47;;;-6.40;97.30;;;;;;5070231;28;21022;-80
2021/12/26 09:45:18;;;;;;;21.50;9.43;;;-6.30;97.30;;;;;;5081865;28;20431;-80
2021/12/26 09:47:45;;;;;;;16.57;7.70;;;-6.20;97.30;;;;;;5070841;28;20483;-79
2021/12/26 09:50:13;;;;;;;15.27;6.90;;;-6.20;97.30;;;;;;5066528;28;20464;-78
2021/12/26 09:52:47;;;;;;;13.43;8.10;;;-6.10;97.30;;;;;;5071794;28;20823;-79
2021/12/26 09:55:15;;;;;;;15.33;6.00;;;-6.00;97.30;;;;;;5073323;28;20426;-80
2021/12/26 09:57:41;;;;;;;15.67;7.20;;;-6.00;97.30;;;;;;5074469;28;20423;-80
2021/12/26 10:00:33;;;;;;;17.37;7.40;;;-5.80;97.30;;;;;;5072885;28;20491;-80
2021/12/26 10:03:22;;;;;;;17.93;8.47;;;-5.70;97.30;;;;;;5064238;28;20963;-80
2021/12/26 10:06:13;;;;;;;20.83;7.77;;;-5.60;97.30;;;;;;5075607;28;20928;-80
2021/12/26 10:09:04;;;;;;;15.03;7.33;;;-5.50;97.30;;;;;;5075386;28;20502;-80
2021/12/26 10:11:32;;;;;;;12.30;5.73;;;-5.40;97.30;;;;;;5066319;28;20464;-80
2021/12/26 10:14:01;;;;;;;12.47;6.30;;;-5.40;97.30;;;;;;5073160;28;20456;-81
2021/12/26 10:16:30;;;;;;;12.50;7.20;;;-5.20;97.30;;;;;;5089077;28;20434;-80
2021/12/26 10:18:57;;;;;;;10.03;6.60;;;-5.10;97.30;;;;;;5083558;28;20907;-80
2021/12/26 10:21:31;;;;;;;13.63;6.20;;;-5.00;97.30;;;;;;5075380;28;20526;-80
2021/12/26 10:24:06;;;;;;;21.50;7.63;;;-4.80;97.30;;;;;;5075245;28;20471;-80
2021/12/26 10:26:35;;;;;;;17.07;8.10;;;-4.60;97.30;;;;;;5072976;28;20624;-81
2021/12/26 10:29:21;;;;;;;12.70;6.37;;;-4.50;97.30;;;;;;5066926;28;20469;-81
2021/12/26 10:32:08;;;;;;;18.20;7.00;;;-4.30;97.30;;;;;;5069416;28;20467;-81
2021/12/26 10:34:44;;;;;;;10.30;6.10;;;-4.10;97.30;;;;;;5051951;28;20438;-82
2021/12/26 10:37:28;;;;;;;16.87;7.47;;;-4.00;97.30;;;;;;5062357;28;20757;-82
2021/12/26 10:40:00;;;;;;;14.93;7.40;;;-3.90;97.30;;;;;;5080958;28;20504;-82
2021/12/26 10:42:35;;;;;;;15.63;7.27;;;-3.70;97.30;;;;;;5095432;28;20499;-82
2021/12/26 10:45:08;;;;;;;9.33;6.47;;;-3.60;97.30;;;;;;5075398;28;20414;-83
2021/12/26 10:57:49;;;;;;;11.13;6.30;;;-2.70;97.30;;;;;;5092516;28;21104;-83
2021/12/26 11:00:25;;;;;;;13.80;6.20;;;-2.60;97.30;;;;;;5074236;28;20452;-83
2021/12/26 11:03:01;;;;;;;14.40;6.90;;;-2.50;97.30;;;;;;5087328;28;20468;-81
2021/12/26 11:05:43;;;;;;;11.57;5.60;;;-2.20;97.30;;;;;;5071447;28;20424;-84
2021/12/26 11:08:11;;;;;;;15.23;6.00;;;-2.10;97.30;;;;;;5069747;28;20739;-85
2021/12/26 11:10:41;;;;;;;15.17;6.47;;;-1.90;97.30;;;;;;5069466;28;20468;-84
2021/12/26 11:13:15;;;;;;;14.73;7.20;;;-1.70;97.30;;;;;;5064494;28;20430;-85
2021/12/26 11:15:42;;;;;;;12.57;6.67;;;-1.50;97.30;;;;;;5071809;28;20448;-84
2021/12/26 11:18:14;;;;;;;15.13;6.03;;;-1.50;97.30;;;;;;5070585;28;20722;-85
2021/12/26 11:20:44;;;;;;;14.37;6.23;;;-1.30;97.30;;;;;;5065964;28;20450;-85
2021/12/26 11:23:16;;;;;;;15.93;7.37;;;-1.20;97.30;;;;;;5070833;28;20529;-86
2021/12/26 11:25:43;;;;;;;11.60;5.50;;;-1.00;97.30;;;;;;5066867;28;20941;-85
2021/12/26 11:28:16;;;;;;;21.50;7.30;;;-0.80;97.30;;;;;;5072567;28;20498;-86
2021/12/26 11:30:44;;;;;;;14.60;6.47;;;-0.70;97.30;;;;;;5058395;28;20470;-86
2021/12/26 11:33:11;;;;;;;14.20;7.13;;;-0.50;97.30;;;;;;5052373;28;20444;-86
2021/12/26 11:35:37;;;;;;;18.60;7.90;;;-0.40;97.10;;;;;;5049789;28;20434;-85
2021/12/26 11:38:04;;;;;;;22.70;7.53;;;-0.30;97.30;;;;;;5052310;28;20460;-86
2021/12/26 11:40:32;;;;;;;14.77;7.33;;;-0.10;97.20;;;;;;5059523;28;20981;-86
2021/12/26 11:42:57;;;;;;;22.23;7.67;;;0.00;96.80;;;;;;5077123;28;20847;-86
2021/12/26 11:45:48;;;;;;;24.57;9.73;;;0.00;95.80;;;;;;5056534;28;20451;-86
2021/12/26 11:48:31;;;;;;;24.50;9.07;;;0.10;95.80;;;;;;5048106;28;20230;-85
2021/12/26 11:51:18;;;;;;;15.33;7.60;;;0.20;95.60;;;;;;5058592;28;20515;-86
2021/12/26 11:54:02;;;;;;;14.20;7.60;;;0.30;95.20;;;;;;5044198;28;20414;-86
2021/12/26 11:56:34;;;;;;;11.70;6.20;;;0.50;95.10;;;;;;5062864;28;20422;-85
2021/12/26 11:59:16;;;;;;;19.90;7.50;;;0.70;95.00;;;;;;5044252;28;20425;-85
2021/12/26 12:01:46;;;;;;;12.60;5.90;;;0.80;94.50;;;;;;5047877;28;20488;-85
2021/12/26 12:04:21;;;;;;;12.83;6.40;;;0.80;94.30;;;;;;5052723;28;20419;-85
2021/12/26 12:06:50;;;;;;;15.70;6.90;;;0.70;93.90;;;;;;5058095;28;20408;-83
2021/12/26 12:09:25;;;;;;;10.10;5.33;;;0.60;94.00;;;;;;5055507;28;20457;-85
2021/12/26 12:12:04;;;;;;;8.90;5.57;;;0.40;94.50;;;;;;5054659;28;20787;-85
2021/12/26 12:14:52;;;;;;;15.47;6.03;;;0.10;95.00;;;;;;5054805;28;20428;-86
2021/12/26 12:17:23;;;;;;;16.97;5.57;;;-0.10;95.20;;;;;;5054439;28;20425;-83
2021/12/26 12:20:10;;;;;;;13.73;7.00;;;-0.30;95.40;;;;;;5055078;28;20424;-84
2021/12/26 12:22:37;;;;;;;10.83;5.97;;;-0.50;95.40;;;;;;5072760;28;20405;-86
2021/12/26 12:25:35;;;;;;;17.50;7.27;;;-0.50;95.50;;;;;;5053654;28;20414;-87
2021/12/26 12:28:22;;;;;;;9.67;5.20;;;-0.60;95.70;;;;;;5051834;28;20421;-86
2021/12/26 12:30:56;;;;;;;14.53;5.53;;;-0.70;96.40;;;;;;5044301;28;20537;-85
2021/12/26 12:33:28;;;;;;;11.23;5.97;;;-0.60;96.50;;;;;;5054536;28;20456;-85
2021/12/26 12:35:56;;;;;;;16.43;7.53;;;-0.50;96.70;;;;;;5054907;28;20428;-83
2021/12/26 12:38:39;;;;;;;15.43;6.77;;;-0.40;96.70;;;;;;5055049;28;20421;-83
2021/12/26 12:41:35;;;;;;;13.80;6.30;;;-0.20;96.80;;;;;;5054908;28;20465;-83
2021/12/26 12:44:06;;;;;;;13.53;6.00;;;0.00;96.40;;;;;;5055363;28;20437;-83
2021/12/26 12:46:53;;;;;;;13.40;5.97;;;0.30;95.60;;;;;;5044901;28;20802;-86
2021/12/26 12:49:20;;;;;;;7.73;4.30;;;0.40;95.00;;;;;;5073477;28;20934;-85
2021/12/26 12:51:53;;;;;;;13.20;5.70;;;0.40;94.90;;;;;;5048718;28;20794;-85
2021/12/26 12:54:31;;;;;;;9.20;5.17;;;0.30;94.50;;;;;;5046097;28;20426;-84
2021/12/26 12:57:00;;;;;;;11.70;6.30;;;0.10;94.60;;;;;;5052659;28;20516;-85
2021/12/26 12:59:41;;;;;;;24.73;7.23;;;-0.10;94.70;;;;;;5054434;28;20410;-85
2021/12/26 13:02:37;;;;;;;14.67;6.07;;;-0.30;95.00;;;;;;5052055;28;20456;-85
2021/12/26 13:05:05;;;;;;;13.97;6.50;;;-0.40;95.50;;;;;;5046001;28;20422;-84
2021/12/26 13:07:31;;;;;;;13.00;5.67;;;-0.50;96.10;;;;;;5052129;28;20433;-86
2021/12/26 13:10:19;;;;;;;20.27;7.70;;;-0.60;96.30;;;;;;5055913;28;20453;-85
2021/12/26 13:12:46;;;;;;;13.70;5.50;;;-0.60;97.00;;;;;;5042429;28;20500;-84
2021/12/26 13:15:14;;;;;;;10.83;4.70;;;-0.40;97.30;;;;;;5048211;28;20436;-85
2021/12/26 13:17:43;;;;;;;13.70;6.30;;;-0.40;96.80;;;;;;5052605;28;20422;-86
2021/12/26 13:20:21;;;;;;;15.37;5.43;;;-0.60;96.50;;;;;;5050090;28;20441;-83
2021/12/26 13:22:54;;;;;;;37.97;10.40;;;-0.60;96.90;;;;;;5051287;28;20449;-85
2021/12/26 13:25:41;;;;;;;23.20;8.70;;;-0.70;97.20;;;;;;5038699;28;20465;-83
2021/12/26 13:28:18;;;;;;;24.27;8.80;;;-0.80;97.30;;;;;;5035591;28;20779;-84
2021/12/26 13:30:46;;;;;;;21.13;8.47;;;-0.90;97.30;;;;;;5035040;28;20465;-84
2021/12/26 13:33:22;;;;;;;16.50;6.70;;;-1.00;97.30;;;;;;5034442;28;20472;-86
2021/12/26 13:35:49;;;;;;;20.33;7.97;;;-1.30;97.30;;;;;;5054159;28;20432;-86
2021/12/26 13:38:15;;;;;;;26.93;7.87;;;-1.40;97.30;;;;;;5054533;28;20409;-87
2021/12/26 13:40:45;;;;;;;19.90;7.63;;;-1.40;97.30;;;;;;5040800;28;20461;-88
2021/12/26 13:43:14;;;;;;;17.57;6.20;;;-1.50;97.30;;;;;;5067473;28;20421;-84
2021/12/26 13:45:43;;;;;;;17.47;7.40;;;-1.50;97.30;;;;;;5064813;28;20515;-84
2021/12/26 13:48:27;;;;;;;13.17;5.90;;;-1.50;97.30;;;;;;5057008;28;20432;-84
2021/12/26 13:50:53;;;;;;;9.97;4.83;;;-1.50;97.30;;;;;;5057879;28;20540;-82
2021/12/26 13:53:19;;;;;;;11.10;5.60;;;-1.60;97.30;;;;;;5059516;28;20429;-84
2021/12/26 13:55:47;;;;;;;12.07;5.83;;;-1.60;97.30;;;;;;5054537;28;20439;-85
2021/12/26 13:58:14;;;;;;;12.10;5.90;;;-1.70;97.30;;;;;;5075760;28;20172;-87
2021/12/26 14:21:11;;;;;;;23.47;6.63;;;-1.70;97.30;;;;;;5077518;28;20428;-86
2021/12/26 14:23:43;;;;;;;9.90;5.30;;;-1.80;97.30;;;;;;5082683;28;20466;-83
2021/12/26 14:26:31;;;;;;;12.83;5.50;;;-1.90;97.30;;;;;;5071637;28;20794;-84
2021/12/26 14:29:14;;;;;;;8.97;4.77;;;-1.90;97.30;;;;;;5065540;28;20841;-85
2021/12/26 14:31:53;;;;;;;13.07;5.10;;;-2.00;97.30;;;;;;5091741;28;20460;-86
2021/12/26 14:34:28;;;;;;;15.60;5.60;;;-2.20;97.30;;;;;;5076809;28;20408;-85
2021/12/26 14:37:01;;;;;;;12.10;5.67;;;-2.20;97.30;;;;;;5064116;28;20789;-85
2021/12/26 14:39:34;;;;;;;14.00;4.93;;;-2.30;97.30;;;;;;5063885;28;20440;-84
2021/12/26 14:42:09;;;;;;;16.60;4.77;;;-2.30;97.30;;;;;;5063257;28;20441;-84